createdAt,value
2017-10-10T00:01:03.710Z,87.33
2017-10-10T00:03:31.171Z,87.83
2017-10-10T00:05:58.725Z,88.26
2017-10-10T00:08:26.210Z,88.76
2017-10-10T00:10:53.694Z,87.87
2017-10-10T00:13:21.143Z,88.37
2017-10-10T00:15:48.675Z,88.40
2017-10-10T00:18:16.131Z,88.85
2017-10-10T00:20:43.618Z,88.60
2017-10-10T00:23:11.157Z,88.37
2017-10-10T00:25:38.642Z,89.22
2017-10-10T00:28:06.102Z,88.15
2017-10-10T00:30:33.594Z,89.00
2017-10-10T00:33:01.047Z,88.80
2017-10-10T00:35:28.551Z,89.48
2017-10-10T00:37:56.032Z,89.45
2017-10-10T00:40:23.526Z,89.12
2017-10-10T00:42:51.077Z,89.15
2017-10-10T00:45:18.535Z,89.26
2017-10-10T00:47:46.024Z,89.16
2017-10-10T00:50:13.472Z,89.90
2017-10-10T00:52:40.994Z,89.12
2017-10-10T00:55:08.470Z,89.21
2017-10-10T00:57:35.939Z,88.94
2017-10-10T01:00:03.391Z,88.88
2017-10-10T01:02:30.882Z,89.58
2017-10-10T01:04:58.338Z,89.47
2017-10-10T01:07:25.834Z,90.03
2017-10-10T01:09:53.269Z,89.89
2017-10-10T01:12:20.745Z,90.10
2017-10-10T01:14:48.179Z,88.68
2017-10-10T01:17:15.650Z,88.99
2017-10-10T01:19:43.086Z,89.60
2017-10-10T01:22:10.526Z,90.04
2017-10-10T01:24:37.989Z,89.64
2017-10-10T01:27:05.430Z,89.12
2017-10-10T01:29:32.947Z,88.49
2017-10-10T01:32:00.387Z,88.10
2017-10-10T01:34:27.854Z,88.25
2017-10-10T01:36:55.286Z,88.73
2017-10-10T01:39:22.742Z,89.10
2017-10-10T01:41:50.180Z,90.03
2017-10-10T01:44:17.647Z,90.68
2017-10-10T01:46:45.098Z,90.68
2017-10-10T01:49:12.558Z,90.61
2017-10-10T01:51:40.020Z,90.51
2017-10-10T01:54:07.511Z,90.46
2017-10-10T01:56:34.970Z,90.09
2017-10-10T01:59:02.444Z,90.04
2017-10-10T02:01:29.902Z,89.42
2017-10-10T02:03:57.429Z,89.08
2017-10-10T02:06:24.878Z,89.14
2017-10-10T02:08:52.344Z,88.29
2017-10-10T02:11:19.818Z,88.59
2017-10-10T02:13:47.274Z,88.22
2017-10-10T02:16:14.841Z,88.42
2017-10-10T02:18:42.287Z,87.49
2017-10-10T02:21:09.764Z,86.54
2017-10-10T02:23:37.253Z,86.43
2017-10-10T02:26:04.772Z,87.44
2017-10-10T02:28:32.323Z,86.38
2017-10-10T02:30:59.877Z,86.76
2017-10-10T02:33:27.326Z,86.60
2017-10-10T02:35:54.893Z,87.00
2017-10-10T02:38:22.363Z,86.96
2017-10-10T02:40:49.837Z,87.55
2017-10-10T02:43:17.284Z,87.73
2017-10-10T02:45:44.760Z,88.17
2017-10-10T02:48:12.232Z,89.26
2017-10-10T02:50:39.702Z,89.17
2017-10-10T02:53:07.145Z,88.15
2017-10-10T02:55:34.651Z,88.53
2017-10-10T02:58:02.098Z,87.76
2017-10-10T03:00:29.547Z,87.96
2017-10-10T03:02:57.030Z,88.08
2017-10-10T03:05:24.484Z,88.48
2017-10-10T03:07:51.960Z,88.78
2017-10-10T03:10:19.402Z,88.57
2017-10-10T03:12:46.887Z,88.02
2017-10-10T03:15:14.337Z,88.73
2017-10-10T03:17:41.810Z,88.03
2017-10-10T03:20:09.323Z,87.83
2017-10-10T03:22:36.807Z,88.03
2017-10-10T03:25:04.255Z,87.83
2017-10-10T03:27:32.620Z,87.90
2017-10-10T03:30:00.155Z,88.37
2017-10-10T03:32:27.602Z,88.21
2017-10-10T03:34:55.079Z,88.74
2017-10-10T03:37:22.545Z,88.54
2017-10-10T03:39:50.014Z,88.00
2017-10-10T03:42:17.469Z,87.01
2017-10-10T03:44:44.949Z,86.95
2017-10-10T03:47:12.450Z,86.72
2017-10-10T03:49:39.944Z,87.13
2017-10-10T03:52:07.425Z,87.17
2017-10-10T03:54:34.890Z,86.56
2017-10-10T03:57:02.335Z,86.97
2017-10-10T03:59:29.795Z,86.87
2017-10-10T04:01:57.263Z,87.47
2017-10-10T04:04:25.178Z,87.27
2017-10-10T04:06:52.638Z,88.01
2017-10-10T04:09:20.116Z,87.75
2017-10-10T04:11:47.566Z,88.52
2017-10-10T04:14:15.038Z,88.26
2017-10-10T04:16:42.499Z,88.25
2017-10-10T04:19:11.127Z,87.89
2017-10-10T04:21:38.817Z,87.01
2017-10-10T04:24:07.125Z,87.52
2017-10-10T04:26:34.856Z,86.56
2017-10-10T04:29:02.306Z,87.27
2017-10-10T04:31:29.783Z,86.83
2017-10-10T04:33:57.253Z,87.14
2017-10-10T04:36:24.745Z,87.42
2017-10-10T04:38:52.200Z,87.07
2017-10-10T04:41:19.796Z,87.41
2017-10-10T04:43:47.255Z,87.38
2017-10-10T04:46:14.722Z,87.70
2017-10-10T04:48:42.166Z,87.24
2017-10-10T04:51:09.708Z,87.33
2017-10-10T04:53:37.193Z,87.08
2017-10-10T04:56:04.675Z,87.11
2017-10-10T04:58:32.146Z,88.00
2017-10-10T05:00:59.602Z,87.84
2017-10-10T05:03:27.109Z,87.45
2017-10-10T05:05:54.558Z,87.35
2017-10-10T05:08:22.107Z,87.09
2017-10-10T05:10:49.559Z,87.56
2017-10-10T05:13:17.030Z,87.58
2017-10-10T05:15:44.474Z,87.80
2017-10-10T05:18:11.934Z,87.90
2017-10-10T05:20:39.382Z,88.43
2017-10-10T05:23:06.846Z,88.82
2017-10-10T05:25:34.310Z,87.53
2017-10-10T05:28:01.786Z,88.17
2017-10-10T05:30:29.334Z,87.50
2017-10-10T05:32:56.794Z,86.77
2017-10-10T05:35:24.237Z,86.92
2017-10-10T05:37:51.719Z,87.46
2017-10-10T05:40:19.167Z,87.85
2017-10-10T05:42:46.644Z,87.25
2017-10-10T05:45:14.094Z,89.00
2017-10-10T05:47:41.568Z,87.56
2017-10-10T05:50:09.022Z,87.20
2017-10-10T05:52:36.525Z,87.48
2017-10-10T05:55:03.995Z,87.37
2017-10-10T05:57:31.470Z,86.73
2017-10-10T05:59:58.915Z,86.76
2017-10-10T06:02:26.562Z,86.65
2017-10-10T06:04:54.016Z,87.76
2017-10-10T06:07:21.514Z,87.50
2017-10-10T06:09:48.967Z,88.10
2017-10-10T06:12:16.437Z,87.45
2017-10-10T06:14:43.881Z,87.94
2017-10-10T06:17:11.389Z,88.58
2017-10-10T06:19:38.840Z,87.71
2017-10-10T06:22:06.289Z,87.23
2017-10-10T06:24:33.753Z,88.42
2017-10-10T06:27:01.322Z,87.63
2017-10-10T06:29:28.788Z,88.37
2017-10-10T06:31:56.238Z,88.14
2017-10-10T06:34:23.728Z,87.21
2017-10-10T06:36:51.171Z,87.65
2017-10-10T06:39:18.634Z,87.26
2017-10-10T06:41:46.159Z,88.43
2017-10-10T06:44:13.615Z,89.22
2017-10-10T06:46:41.066Z,88.68
2017-10-10T06:49:08.541Z,89.68
2017-10-10T06:51:35.991Z,88.96
2017-10-10T06:54:03.505Z,88.15
2017-10-10T06:56:30.933Z,87.84
2017-10-10T06:58:58.417Z,88.28
2017-10-10T07:01:25.854Z,87.35
2017-10-10T07:03:53.377Z,88.46
2017-10-10T07:06:20.822Z,85.72
2017-10-10T07:08:48.273Z,86.74
2017-10-10T07:11:15.715Z,87.43
2017-10-10T07:13:43.170Z,87.15
2017-10-10T07:16:10.629Z,86.34
2017-10-10T07:18:38.096Z,86.15
2017-10-10T07:21:05.542Z,87.23
2017-10-10T07:23:33.059Z,87.32
2017-10-10T07:26:00.587Z,86.83
2017-10-10T07:28:28.044Z,86.61
2017-10-10T07:30:55.509Z,86.46
2017-10-10T07:33:22.965Z,86.92
2017-10-10T07:35:50.427Z,86.70
2017-10-10T07:38:17.872Z,86.80
2017-10-10T07:40:45.338Z,86.94
2017-10-10T07:43:12.773Z,86.89
2017-10-10T07:45:40.239Z,86.48
2017-10-10T07:48:07.674Z,86.42
2017-10-10T07:50:35.151Z,86.83
2017-10-10T07:53:02.614Z,87.13
2017-10-10T07:55:30.089Z,87.41
2017-10-10T07:57:57.521Z,87.45
2017-10-10T08:00:24.982Z,86.58
2017-10-10T08:02:52.431Z,87.09
2017-10-10T08:05:19.890Z,86.54
2017-10-10T08:07:47.327Z,86.61
2017-10-10T08:10:14.813Z,86.88
2017-10-10T08:12:42.259Z,87.01
2017-10-10T08:15:09.714Z,86.09
2017-10-10T08:17:37.156Z,86.59
2017-10-10T08:20:04.615Z,85.67
2017-10-10T08:22:32.051Z,85.99
2017-10-10T08:24:59.526Z,85.62
2017-10-10T08:27:26.962Z,85.08
2017-10-10T08:29:54.433Z,85.20
2017-10-10T08:32:21.872Z,85.30
2017-10-10T08:34:49.338Z,85.50
2017-10-10T08:37:16.794Z,84.97
2017-10-10T08:39:44.235Z,84.34
2017-10-10T08:42:11.719Z,84.11
2017-10-10T08:44:39.175Z,83.07
2017-10-10T08:47:06.835Z,83.16
2017-10-10T08:49:34.322Z,82.79
2017-10-10T08:52:01.782Z,84.23
2017-10-10T08:54:29.229Z,82.77
2017-10-10T08:56:56.707Z,82.72
2017-10-10T08:59:24.170Z,83.29
2017-10-10T09:01:51.631Z,83.78
2017-10-10T09:04:19.074Z,83.41
2017-10-10T09:06:46.539Z,83.88
2017-10-10T09:09:13.981Z,83.33
2017-10-10T09:11:41.502Z,82.89
2017-10-10T09:14:08.979Z,82.62
2017-10-10T09:16:36.417Z,82.27
2017-10-10T09:19:03.874Z,84.17
2017-10-10T09:21:31.310Z,81.74
2017-10-10T09:23:58.791Z,82.07
2017-10-10T09:26:26.260Z,81.85
2017-10-10T09:28:53.723Z,81.25
2017-10-10T09:31:21.270Z,80.80
2017-10-10T09:33:48.733Z,81.94
2017-10-10T09:36:16.186Z,81.10
2017-10-10T09:38:43.643Z,81.42
2017-10-10T09:41:11.088Z,81.64
2017-10-10T09:43:38.659Z,81.57
2017-10-10T09:46:06.107Z,81.51
2017-10-10T09:48:33.562Z,80.96
2017-10-10T09:51:00.996Z,80.04
2017-10-10T09:53:28.503Z,81.38
2017-10-10T09:55:55.962Z,80.67
2017-10-10T09:58:23.503Z,80.94
2017-10-10T10:00:50.939Z,80.11
2017-10-10T10:03:18.429Z,80.63
2017-10-10T10:05:45.971Z,81.27
2017-10-10T10:08:13.430Z,80.88
2017-10-10T10:10:40.874Z,82.00
2017-10-10T10:13:08.334Z,81.36
2017-10-10T10:15:35.805Z,81.84
2017-10-10T10:18:03.275Z,80.99
2017-10-10T10:20:30.709Z,81.60
2017-10-10T10:22:58.331Z,81.48
2017-10-10T10:25:25.791Z,80.99
2017-10-10T10:27:53.263Z,80.82
2017-10-10T10:30:20.706Z,80.99
2017-10-10T10:32:48.171Z,81.11
2017-10-10T10:35:15.619Z,80.94
2017-10-10T10:37:43.088Z,80.70
2017-10-10T10:40:10.541Z,80.77
2017-10-10T10:42:37.980Z,80.52
2017-10-10T10:45:05.452Z,80.61
2017-10-10T10:47:32.899Z,79.81
2017-10-10T10:50:00.383Z,79.11
2017-10-10T10:52:27.855Z,78.73
2017-10-10T10:54:55.335Z,78.54
2017-10-10T10:57:22.779Z,78.61
2017-10-10T10:59:50.324Z,78.25
2017-10-10T11:02:17.766Z,77.45
2017-10-10T11:04:45.222Z,78.37
2017-10-10T11:07:12.663Z,77.79
2017-10-10T11:09:40.153Z,76.00
2017-10-10T11:12:07.598Z,74.45
2017-10-10T11:14:35.062Z,74.40
2017-10-10T11:17:02.519Z,74.42
2017-10-10T11:19:29.982Z,75.58
2017-10-10T11:21:57.419Z,75.52
2017-10-10T11:24:24.907Z,75.48
2017-10-10T11:26:52.350Z,76.08
2017-10-10T11:29:19.915Z,76.87
2017-10-10T11:31:47.462Z,77.05
2017-10-10T11:34:14.920Z,77.41
2017-10-10T11:36:42.358Z,76.62
2017-10-10T11:39:09.830Z,76.86
2017-10-10T11:41:37.302Z,75.83
2017-10-10T11:44:04.763Z,76.58
2017-10-10T11:46:32.290Z,77.10
2017-10-10T11:48:59.752Z,77.45
2017-10-10T11:51:27.197Z,77.74
2017-10-10T11:53:54.674Z,77.47
2017-10-10T11:56:22.125Z,77.99
2017-10-10T11:58:49.571Z,78.04
2017-10-10T12:01:17.026Z,78.89
2017-10-10T12:03:44.467Z,79.22
2017-10-10T12:06:11.926Z,79.46
2017-10-10T12:08:39.364Z,78.16
2017-10-10T12:11:06.830Z,78.68
2017-10-10T12:13:34.314Z,79.17
2017-10-10T12:16:01.910Z,78.74
2017-10-10T12:18:29.354Z,78.32
2017-10-10T12:20:56.810Z,78.59
2017-10-10T12:23:24.269Z,78.45
2017-10-10T12:25:51.744Z,78.96
2017-10-10T12:28:19.182Z,78.46
2017-10-10T12:30:46.728Z,78.23
2017-10-10T12:33:14.186Z,78.98
2017-10-10T12:35:41.643Z,79.12
2017-10-10T12:38:09.111Z,79.23
2017-10-10T12:40:36.603Z,79.18
2017-10-10T12:43:04.048Z,79.12
2017-10-10T12:45:31.531Z,79.27
2017-10-10T12:47:58.990Z,79.16
2017-10-10T12:50:26.450Z,78.98
2017-10-10T12:52:53.902Z,79.12
2017-10-10T12:55:21.391Z,78.11
2017-10-10T12:57:48.853Z,77.80
2017-10-10T13:00:16.310Z,78.29
2017-10-10T13:02:43.760Z,77.65
2017-10-10T13:05:11.234Z,77.33
2017-10-10T13:07:38.678Z,77.43
2017-10-10T13:10:06.256Z,76.65
2017-10-10T13:12:33.714Z,77.03
2017-10-10T13:15:01.202Z,76.71
2017-10-10T13:17:28.646Z,77.23
2017-10-10T13:19:56.111Z,77.40
2017-10-10T13:22:23.631Z,76.82
2017-10-10T13:24:51.176Z,76.99
2017-10-10T13:27:18.736Z,76.86
2017-10-10T13:29:46.214Z,76.98
2017-10-10T13:32:13.737Z,76.69
2017-10-10T13:34:41.203Z,76.40
2017-10-10T13:37:08.671Z,76.88
2017-10-10T13:39:36.113Z,76.96
2017-10-10T13:42:03.675Z,76.33
2017-10-10T13:44:31.124Z,75.95
2017-10-10T13:46:58.588Z,76.04
2017-10-10T13:49:26.039Z,76.72
2017-10-10T13:51:53.509Z,76.13
2017-10-10T13:54:21.071Z,76.72
2017-10-10T13:56:48.526Z,76.96
2017-10-10T13:59:15.975Z,76.72
2017-10-10T14:01:43.438Z,77.10
2017-10-10T14:04:10.884Z,77.44
2017-10-10T14:06:38.443Z,77.38
2017-10-10T14:09:05.887Z,76.05
2017-10-10T14:11:33.351Z,76.69
2017-10-10T14:14:00.798Z,76.67
2017-10-10T14:16:28.276Z,76.05
2017-10-10T14:18:55.711Z,76.71
2017-10-10T14:21:23.179Z,76.72
2017-10-10T14:23:50.631Z,76.25
2017-10-10T14:26:18.208Z,76.35
2017-10-10T14:28:45.766Z,77.17
2017-10-10T14:31:13.340Z,77.06
2017-10-10T14:33:40.785Z,77.33
2017-10-10T14:36:08.237Z,77.13
2017-10-10T14:38:35.710Z,77.81
2017-10-10T14:41:03.150Z,77.94
2017-10-10T14:43:30.601Z,77.53
2017-10-10T14:45:58.066Z,77.75
2017-10-10T14:48:25.538Z,77.11
2017-10-10T14:50:52.975Z,77.09
2017-10-10T14:53:20.433Z,77.41
2017-10-10T14:55:47.893Z,76.74
2017-10-10T14:58:15.349Z,77.01
2017-10-10T15:00:42.785Z,77.09
2017-10-10T15:03:10.246Z,76.82
2017-10-10T15:05:37.706Z,78.25
2017-10-10T15:08:05.170Z,78.22
2017-10-10T15:10:32.615Z,77.53
2017-10-10T15:13:00.086Z,77.68
2017-10-10T15:15:27.531Z,77.98
2017-10-10T15:17:54.998Z,77.80
2017-10-10T15:20:22.439Z,77.92
2017-10-10T15:22:49.898Z,77.71
2017-10-10T15:25:17.358Z,78.01
2017-10-10T15:27:44.925Z,77.62
2017-10-10T15:30:12.366Z,77.33
2017-10-10T15:32:39.830Z,77.91
2017-10-10T15:35:07.391Z,77.90
2017-10-10T15:37:34.978Z,79.57
2017-10-10T15:40:02.517Z,80.01
2017-10-10T15:42:29.954Z,80.59
2017-10-10T15:44:57.404Z,81.25
2017-10-10T15:47:24.842Z,81.09
2017-10-10T15:49:52.332Z,80.25
2017-10-10T15:52:19.770Z,81.14
2017-10-10T15:54:48.163Z,81.09
2017-10-10T15:57:14.803Z,82.79
2017-10-10T15:59:42.268Z,81.48
2017-10-10T16:02:09.716Z,82.00
2017-10-10T16:04:37.199Z,82.54
2017-10-10T16:07:04.735Z,82.35
2017-10-10T16:09:32.181Z,82.57
2017-10-10T16:11:59.639Z,82.56
2017-10-10T16:14:27.161Z,82.33
2017-10-10T16:16:54.647Z,82.07
2017-10-10T16:19:22.098Z,81.54
2017-10-10T16:21:49.554Z,81.74
2017-10-10T16:24:16.998Z,81.40
2017-10-10T16:26:44.467Z,80.76
2017-10-10T16:29:11.918Z,80.70
2017-10-10T16:31:39.402Z,80.97
2017-10-10T16:34:06.872Z,80.98
2017-10-10T16:36:34.320Z,81.33
2017-10-10T16:39:01.814Z,82.27
2017-10-10T16:41:29.293Z,82.51
2017-10-10T16:43:56.796Z,82.59
2017-10-10T16:46:24.249Z,83.40
2017-10-10T16:48:51.704Z,82.94
2017-10-10T16:51:19.143Z,83.67
2017-10-10T16:53:46.598Z,83.97
2017-10-10T16:56:14.074Z,82.83
2017-10-10T16:58:41.513Z,82.47
2017-10-10T17:01:09.002Z,82.95
2017-10-10T17:03:36.539Z,82.99
2017-10-10T17:06:04.093Z,83.79
2017-10-10T17:08:31.547Z,83.54
2017-10-10T17:10:59.013Z,83.78
2017-10-10T17:13:26.449Z,83.77
2017-10-10T17:15:53.890Z,83.53
2017-10-10T17:18:21.349Z,83.88
2017-10-10T17:20:48.804Z,83.72
2017-10-10T17:23:16.291Z,83.75
2017-10-10T17:25:43.749Z,83.84
2017-10-10T17:28:11.215Z,83.29
2017-10-10T17:30:38.683Z,83.29
2017-10-10T17:33:06.179Z,82.85
2017-10-10T17:35:33.635Z,84.72
2017-10-10T17:38:01.099Z,84.91
2017-10-10T17:40:28.538Z,85.46
2017-10-10T17:42:56.056Z,85.79
2017-10-10T17:45:23.510Z,86.39
2017-10-10T17:47:50.975Z,86.25
2017-10-10T17:50:18.423Z,86.82
2017-10-10T17:52:45.880Z,86.56
2017-10-10T17:55:13.338Z,86.96
2017-10-10T17:57:40.803Z,87.36
2017-10-10T18:00:08.269Z,87.53
2017-10-10T18:02:35.721Z,87.46
2017-10-10T18:05:03.186Z,87.82
2017-10-10T18:07:30.707Z,87.86
2017-10-10T18:09:58.159Z,87.44
2017-10-10T18:12:25.622Z,87.43
2017-10-10T18:14:53.072Z,88.40
2017-10-10T18:17:20.542Z,88.26
2017-10-10T18:19:48.017Z,88.10
2017-10-10T18:22:15.496Z,88.07
2017-10-10T18:24:43.015Z,88.59
2017-10-10T18:27:10.493Z,87.62
2017-10-10T18:29:37.952Z,87.10
2017-10-10T18:32:05.516Z,86.33
2017-10-10T18:34:32.992Z,85.94
2017-10-10T18:37:00.438Z,86.16
2017-10-10T18:39:27.920Z,85.61
2017-10-10T18:41:55.367Z,85.82
2017-10-10T18:44:22.831Z,85.92
2017-10-10T18:46:50.280Z,85.88
2017-10-10T18:49:17.788Z,86.22
2017-10-10T18:51:45.347Z,86.37
2017-10-10T18:54:12.818Z,86.70
2017-10-10T18:56:40.268Z,86.53
2017-10-10T18:59:07.751Z,85.95
2017-10-10T19:01:35.185Z,85.91
2017-10-10T19:04:02.743Z,86.34
2017-10-10T19:06:30.189Z,85.77
2017-10-10T19:08:57.655Z,85.71
2017-10-10T19:11:25.212Z,85.40
2017-10-10T19:13:52.680Z,85.16
2017-10-10T19:16:20.147Z,86.18
2017-10-10T19:18:47.635Z,86.16
2017-10-10T19:21:15.087Z,86.92
2017-10-10T19:23:42.583Z,86.94
2017-10-10T19:26:10.022Z,87.07
2017-10-10T19:28:37.496Z,86.99
2017-10-10T19:31:04.934Z,87.12
2017-10-10T19:33:32.428Z,86.94
2017-10-10T19:35:59.874Z,87.51
2017-10-10T19:38:27.397Z,86.97
2017-10-10T19:40:54.862Z,88.55
2017-10-10T19:43:22.344Z,88.10
2017-10-10T19:45:49.810Z,87.71
2017-10-10T19:48:17.357Z,87.83
2017-10-10T19:50:44.810Z,88.17
2017-10-10T19:53:12.254Z,87.83
2017-10-10T19:55:39.720Z,87.89
2017-10-10T19:58:07.178Z,88.01
2017-10-10T20:00:34.663Z,88.43
2017-10-10T20:03:02.117Z,88.62
2017-10-10T20:05:29.579Z,88.56
2017-10-10T20:07:57.017Z,88.78
2017-10-10T20:10:24.563Z,88.67
2017-10-10T20:12:52.009Z,88.17
2017-10-10T20:15:19.481Z,88.74
2017-10-10T20:17:46.942Z,88.54
2017-10-10T20:20:14.405Z,88.76
2017-10-10T20:22:41.879Z,89.22
2017-10-10T20:25:09.314Z,89.42
2017-10-10T20:27:36.774Z,89.16
2017-10-10T20:30:04.214Z,89.24
2017-10-10T20:32:31.675Z,89.48
2017-10-10T20:34:59.218Z,89.37
2017-10-10T20:37:26.694Z,89.27
2017-10-10T20:39:54.134Z,89.48
2017-10-10T20:42:21.594Z,89.82
2017-10-10T20:44:49.048Z,89.82
2017-10-10T20:47:16.519Z,89.81
2017-10-10T20:49:43.991Z,89.54
2017-10-10T20:52:11.528Z,89.77
2017-10-10T20:54:39.002Z,89.47
2017-10-10T20:57:06.447Z,89.39
2017-10-10T20:59:33.907Z,89.54
2017-10-10T21:02:01.346Z,89.68
2017-10-10T21:04:28.819Z,89.32
2017-10-10T21:06:56.262Z,89.34
2017-10-10T21:09:23.727Z,89.14
2017-10-10T21:11:51.179Z,89.18
2017-10-10T21:14:18.643Z,89.31
2017-10-10T21:16:46.195Z,89.18
2017-10-10T21:19:13.754Z,89.63
2017-10-10T21:21:41.194Z,89.92
2017-10-10T21:24:08.651Z,89.53
2017-10-10T21:26:36.113Z,89.83
2017-10-10T21:29:03.695Z,89.78
2017-10-10T21:31:31.141Z,89.90
2017-10-10T21:33:58.603Z,90.02
2017-10-10T21:36:26.067Z,89.05
2017-10-10T21:38:53.522Z,89.99
2017-10-10T21:41:20.979Z,89.78
2017-10-10T21:43:48.433Z,89.61
2017-10-10T21:46:15.922Z,89.82
2017-10-10T21:48:43.439Z,90.05
2017-10-10T21:51:10.999Z,91.43
2017-10-10T21:53:38.469Z,90.74
2017-10-10T21:56:06.011Z,90.33
2017-10-10T21:58:33.475Z,90.23
2017-10-10T22:01:00.950Z,90.10
2017-10-10T22:03:28.401Z,90.06
2017-10-10T22:05:55.935Z,90.52
2017-10-10T22:08:23.391Z,90.58
2017-10-10T22:10:50.840Z,90.37
2017-10-10T22:13:18.299Z,90.81
2017-10-10T22:15:45.737Z,90.77
2017-10-10T22:18:13.244Z,90.23
2017-10-10T22:20:40.779Z,90.49
2017-10-10T22:23:08.231Z,90.40
2017-10-10T22:25:35.692Z,90.35
2017-10-10T22:28:03.154Z,90.79
2017-10-10T22:30:30.611Z,90.66
2017-10-10T22:32:58.076Z,90.74
2017-10-10T22:35:25.549Z,90.23
2017-10-10T22:37:53.006Z,90.21
2017-10-10T22:40:20.451Z,90.42
2017-10-10T22:42:47.989Z,90.35
2017-10-10T22:45:15.449Z,90.57
2017-10-10T22:47:42.951Z,90.42
2017-10-10T22:50:10.438Z,89.80
2017-10-10T22:52:37.878Z,90.10
2017-10-10T22:55:05.347Z,90.56
2017-10-10T22:57:32.811Z,90.89
2017-10-10T23:00:00.295Z,90.87
2017-10-10T23:02:27.751Z,90.75
2017-10-10T23:04:55.219Z,90.53
2017-10-10T23:07:22.779Z,90.90
2017-10-10T23:09:50.245Z,91.05
2017-10-10T23:12:17.785Z,90.57
2017-10-10T23:14:45.350Z,90.87
2017-10-10T23:17:12.805Z,90.68
2017-10-10T23:19:40.285Z,90.87
2017-10-10T23:22:07.729Z,90.92
2017-10-10T23:24:35.177Z,90.66
2017-10-10T23:27:02.623Z,91.04
2017-10-10T23:29:30.090Z,91.09
2017-10-10T23:31:57.546Z,91.38
2017-10-10T23:34:25.039Z,91.20
2017-10-10T23:36:52.499Z,90.95
2017-10-10T23:39:19.967Z,91.78
2017-10-10T23:41:47.421Z,91.85
2017-10-10T23:44:14.868Z,91.85
2017-10-10T23:46:42.319Z,91.95
2017-10-10T23:49:09.776Z,92.45
2017-10-10T23:51:37.237Z,92.43
2017-10-10T23:54:04.699Z,91.73
2017-10-10T23:56:32.202Z,92.43
2017-10-10T23:58:59.652Z,92.62
